Decoded Metar for SLSA (SANTA ANA in BOLIVIA) (IATA:N/A) | Meteo·Mobile Aviation Weather
aviador You're here:

SLSA Decoded Metar

SANTA ANA in BOLIVIA
Report Time2018-09-19 15:00:00
UTC Time2018-09-19 15:15:44
Flight Rules vfr VFR
Wind360° at 07 kt
W.Decomp.*RWY 32: 4.7 kt HW 5.2 kt RCW
Visibility9999 m
Phenomena:N/A
Clouds:Few 015 Hf
Broken 200 Hf
Expected CloudBase > 2,400 ft AGL from Temp-Dew spread
Ceiling20,000 ft
Temp29°C (ISA +15)
Dew Point23°C (70% RH)
Heat Index32.7°C
QNH1011 hPa
Density Alt2,625 ft
Elevation472 ft
Report Wrong Elevation
Raw Report
METAR SLSA 191500Z 36007KT 9999 FEW015 BKN200 29/23 Q1011=

Extra information for SLSA:More info

Metar Taf Metar & Taf Last 4 Metars F.Rules Stats Wind Profile Meteogram Temp Stats Airport Information Weather charts Add Link Nearby VenuesMetar ALERT Operation Metar Decoded Social comments